Time;durP1;ratioP1;P1;durP2;ratioP2;P2;SDS_P1;SDS_P2;PMS_P1;PMS_P2;Temp;Humidity;BMP_temperature;BMP_pressure;BME280_temperature;BME280_humidity;BME280_pressure;Samples;Min_cycle;Max_cycle;Signal;HPM_P1;HPM_P2
2023/04/03 00:00:10;;;;;;;3.47;2.30;;;;;;;;;;5001971;28;20445;-81
2023/04/03 00:02:36;;;;;;;3.72;2.30;;;;;;;;;;5017926;28;20429;-88
2023/04/03 00:05:02;;;;;;;5.25;2.55;;;;;;;;;;5002927;28;20435;-87
2023/04/03 00:07:28;;;;;;;4.85;2.63;;;;;;;;;;5018681;28;20438;-87
2023/04/03 00:09:54;;;;;;;4.57;2.40;;;;;;;;;;5001850;28;20425;-88
2023/04/03 00:12:20;;;;;;;4.68;2.45;;;;;;;;;;5036528;28;20492;-88
2023/04/03 00:14:46;;;;;;;5.68;2.55;;;;;;;;;;5017638;28;20508;-87
2023/04/03 00:17:12;;;;;;;4.63;2.43;;;;;;;;;;5018444;28;20426;-88
2023/04/03 00:19:38;;;;;;;4.00;2.30;;;;;;;;;;5002031;28;20428;-81
2023/04/03 00:22:05;;;;;;;4.72;2.42;;;;;;;;;;5034039;28;20508;-81
2023/04/03 00:24:33;;;;;;;4.10;2.60;;;;;;;;;;5035749;28;20479;-81
2023/04/03 00:26:59;;;;;;;4.47;2.47;;;;;;;;;;5028496;28;20437;-81
2023/04/03 00:29:25;;;;;;;5.10;2.20;;;;;;;;;;5001623;28;20424;-81
2023/04/03 00:31:51;;;;;;;4.25;2.47;;;;;;;;;;5035818;28;20420;-81
2023/04/03 00:34:17;;;;;;;5.15;2.60;;;;;;;;;;5001981;28;20402;-81
2023/04/03 00:36:44;;;;;;;4.50;2.58;;;;;;;;;;5027992;28;20457;-81
2023/04/03 00:39:10;;;;;;;4.55;2.60;;;;;;;;;;4988890;28;20437;-81
2023/04/03 00:41:36;;;;;;;4.95;2.70;;;;;;;;;;4998436;28;20505;-81
2023/04/03 00:44:18;;;;;;;3.92;2.50;;;;;;;;;;5008044;28;20463;-81
2023/04/03 00:46:44;;;;;;;3.42;2.50;;;;;;;;;;5031022;28;20433;-81
2023/04/03 00:49:10;;;;;;;5.15;2.63;;;;;;;;;;5017481;28;20472;-81
2023/04/03 00:51:36;;;;;;;4.53;2.50;;;;;;;;;;5013726;28;20488;-81
2023/04/03 00:54:05;;;;;;;4.20;2.60;;;;;;;;;;5018004;28;20516;-81
2023/04/03 00:56:31;;;;;;;4.75;2.70;;;;;;;;;;5031297;28;20450;-81
2023/04/03 00:59:00;;;;;;;3.83;2.40;;;;;;;;;;5026801;28;20469;-81
2023/04/03 01:01:27;;;;;;;5.07;2.80;;;;;;;;;;5017320;28;20593;-81
2023/04/03 01:03:54;;;;;;;5.57;2.60;;;;;;;;;;5030800;28;20422;-82
2023/04/03 01:06:22;;;;;;;4.35;2.53;;;;;;;;;;5019398;28;20402;-81
2023/04/03 01:08:49;;;;;;;5.22;2.72;;;;;;;;;;5035029;28;20429;-81
2023/04/03 01:11:15;;;;;;;4.53;2.80;;;;;;;;;;5034137;28;20609;-81
2023/04/03 01:13:41;;;;;;;4.95;2.70;;;;;;;;;;5017295;28;20422;-81
2023/04/03 01:16:08;;;;;;;5.38;2.92;;;;;;;;;;5027077;28;20536;-83
2023/04/03 01:18:34;;;;;;;5.22;2.85;;;;;;;;;;5000717;28;20428;-83
2023/04/03 01:21:15;;;;;;;4.65;2.70;;;;;;;;;;5017074;28;20421;-82
2023/04/03 01:23:52;;;;;;;4.85;2.80;;;;;;;;;;5034393;28;20552;-83
2023/04/03 01:26:18;;;;;;;6.30;3.03;;;;;;;;;;5017527;28;20423;-83
2023/04/03 01:28:44;;;;;;;5.45;2.92;;;;;;;;;;5034000;28;20437;-83
2023/04/03 01:31:20;;;;;;;5.25;2.80;;;;;;;;;;5016198;28;20413;-81
2023/04/03 01:33:47;;;;;;;5.00;2.80;;;;;;;;;;5033969;28;20417;-81
2023/04/03 01:36:18;;;;;;;5.32;3.00;;;;;;;;;;5016741;28;20417;-81
2023/04/03 01:38:44;;;;;;;5.38;2.90;;;;;;;;;;5019154;28;20424;-81
2023/04/03 01:41:10;;;;;;;3.95;2.75;;;;;;;;;;5000923;28;20417;-81
2023/04/03 01:43:36;;;;;;;5.63;2.97;;;;;;;;;;5000032;28;20479;-81
2023/04/03 01:46:02;;;;;;;4.38;2.60;;;;;;;;;;5033541;28;20424;-81
2023/04/03 01:48:28;;;;;;;5.57;2.95;;;;;;;;;;4998936;28;20429;-81
2023/04/03 01:50:54;;;;;;;6.18;2.65;;;;;;;;;;5004410;28;20489;-81
2023/04/03 01:53:20;;;;;;;5.70;2.60;;;;;;;;;;5029640;28;20431;-80
2023/04/03 01:55:46;;;;;;;5.53;2.90;;;;;;;;;;5032145;28;20495;-81
2023/04/03 01:58:12;;;;;;;6.32;3.05;;;;;;;;;;5016745;28;20504;-81
2023/04/03 02:00:38;;;;;;;5.72;3.00;;;;;;;;;;4988412;28;20522;-82
2023/04/03 02:03:05;;;;;;;6.65;3.22;;;;;;;;;;5028201;28;20413;-82
2023/04/03 02:05:31;;;;;;;5.88;3.00;;;;;;;;;;5032199;28;20460;-83
2023/04/03 02:07:57;;;;;;;5.97;3.17;;;;;;;;;;5029183;28;20435;-82
2023/04/03 02:10:23;;;;;;;5.30;3.05;;;;;;;;;;5029239;28;20432;-82
2023/04/03 02:12:49;;;;;;;5.97;3.30;;;;;;;;;;5016344;28;20416;-82
2023/04/03 02:15:15;;;;;;;6.32;2.90;;;;;;;;;;5000030;28;20436;-83
2023/04/03 02:17:41;;;;;;;5.35;2.90;;;;;;;;;;4999454;28;20431;-83
2023/04/03 02:20:08;;;;;;;5.10;3.05;;;;;;;;;;4999708;28;20421;-82
2023/04/03 02:22:33;;;;;;;7.10;2.90;;;;;;;;;;4997358;28;20415;-83
2023/04/03 02:25:00;;;;;;;6.05;2.95;;;;;;;;;;4997838;28;20440;-82
2023/04/03 02:27:26;;;;;;;5.28;2.95;;;;;;;;;;5029250;28;20441;-82
2023/04/03 02:29:52;;;;;;;5.85;2.88;;;;;;;;;;4996689;28;20483;-83
2023/04/03 02:32:18;;;;;;;5.55;2.90;;;;;;;;;;5015839;28;20413;-81
2023/04/03 02:34:44;;;;;;;6.38;3.10;;;;;;;;;;5015536;28;20462;-81
2023/04/03 02:37:11;;;;;;;6.25;3.35;;;;;;;;;;5031962;28;20429;-81
2023/04/03 02:39:37;;;;;;;5.60;3.00;;;;;;;;;;4999660;28;20444;-80
2023/04/03 02:42:03;;;;;;;6.33;3.27;;;;;;;;;;5032322;28;20448;-81
2023/04/03 02:44:29;;;;;;;6.20;3.00;;;;;;;;;;4990641;28;20461;-81
2023/04/03 02:46:55;;;;;;;5.13;2.95;;;;;;;;;;5030250;28;20440;-87
2023/04/03 02:49:21;;;;;;;6.53;3.05;;;;;;;;;;4994518;28;20414;-87
2023/04/03 02:51:47;;;;;;;6.72;3.00;;;;;;;;;;4996022;28;20419;-88
2023/04/03 02:54:14;;;;;;;6.90;3.25;;;;;;;;;;5036291;28;20411;-88
2023/04/03 02:56:40;;;;;;;6.07;3.20;;;;;;;;;;5016133;28;20405;-88
2023/04/03 02:59:06;;;;;;;7.03;3.20;;;;;;;;;;5015487;28;20428;-88
2023/04/03 03:01:32;;;;;;;6.60;3.35;;;;;;;;;;4999247;28;20418;-88
2023/04/03 03:03:59;;;;;;;5.95;3.10;;;;;;;;;;4998279;28;20422;-88
2023/04/03 03:06:25;;;;;;;6.20;3.15;;;;;;;;;;5012947;28;20407;-80
2023/04/03 03:08:52;;;;;;;8.30;3.15;;;;;;;;;;5025314;28;20441;-81
2023/04/03 03:11:18;;;;;;;4.97;3.08;;;;;;;;;;4993809;28;20456;-80
2023/04/03 03:13:44;;;;;;;6.95;3.20;;;;;;;;;;5016086;28;20493;-80
2023/04/03 03:16:10;;;;;;;8.77;3.42;;;;;;;;;;5019294;28;20508;-80
2023/04/03 03:18:36;;;;;;;5.63;3.50;;;;;;;;;;5002526;28;20418;-80
2023/04/03 03:21:02;;;;;;;7.60;3.30;;;;;;;;;;5016187;28;20403;-81
2023/04/03 03:23:29;;;;;;;6.60;3.40;;;;;;;;;;5013517;28;20431;-81
2023/04/03 03:25:56;;;;;;;7.22;3.58;;;;;;;;;;5016495;28;20459;-81
2023/04/03 03:28:23;;;;;;;5.45;3.30;;;;;;;;;;5036090;28;20439;-81
2023/04/03 03:30:49;;;;;;;6.97;3.40;;;;;;;;;;5035304;28;20417;-81
2023/04/03 03:33:15;;;;;;;6.05;3.15;;;;;;;;;;5020193;28;20435;-81
2023/04/03 03:35:41;;;;;;;7.35;3.40;;;;;;;;;;5032282;28;20431;-81
2023/04/03 03:38:07;;;;;;;5.82;3.50;;;;;;;;;;4997027;28;20437;-81
2023/04/03 03:40:33;;;;;;;5.57;3.05;;;;;;;;;;5016373;28;20431;-88
2023/04/03 03:42:59;;;;;;;7.40;3.30;;;;;;;;;;5002859;28;20474;-88
2023/04/03 03:45:25;;;;;;;7.65;3.15;;;;;;;;;;5003075;28;20445;-88
2023/04/03 03:47:51;;;;;;;8.10;3.30;;;;;;;;;;5002857;28;20468;-88
2023/04/03 03:50:18;;;;;;;5.70;3.30;;;;;;;;;;5001978;28;20436;-88
2023/04/03 03:52:44;;;;;;;7.40;3.47;;;;;;;;;;5021280;28;20452;-88
2023/04/03 03:55:10;;;;;;;7.47;3.60;;;;;;;;;;5036147;28;20421;-88
2023/04/03 03:57:36;;;;;;;7.95;3.45;;;;;;;;;;5018755;28;20409;-89
2023/04/03 04:00:03;;;;;;;6.60;3.40;;;;;;;;;;4998856;28;20459;-88
2023/04/03 04:02:30;;;;;;;5.90;3.22;;;;;;;;;;5034417;28;20429;-88
2023/04/03 04:04:56;;;;;;;7.20;3.40;;;;;;;;;;5017043;28;20433;-89
2023/04/03 04:07:22;;;;;;;7.75;3.20;;;;;;;;;;5002367;28;20444;-88
2023/04/03 04:09:49;;;;;;;6.97;3.22;;;;;;;;;;5018102;28;20409;-88
2023/04/03 04:12:15;;;;;;;7.90;3.40;;;;;;;;;;5002283;28;20426;-81
2023/04/03 04:14:42;;;;;;;6.07;3.35;;;;;;;;;;5002141;28;20418;-81
2023/04/03 04:17:08;;;;;;;7.15;3.25;;;;;;;;;;5045633;23;20464;-81
2023/04/03 04:19:34;;;;;;;5.78;3.10;;;;;;;;;;4987687;28;20527;-81
2023/04/03 04:22:00;;;;;;;6.43;3.20;;;;;;;;;;5014633;28;20422;-81
2023/04/03 04:24:26;;;;;;;7.27;3.43;;;;;;;;;;5018230;28;20448;-80
2023/04/03 04:26:52;;;;;;;9.23;3.65;;;;;;;;;;5017140;28;20433;-80
2023/04/03 04:29:18;;;;;;;9.15;3.30;;;;;;;;;;5014478;28;20431;-77
2023/04/03 04:31:44;;;;;;;6.43;3.45;;;;;;;;;;5000388;28;20429;-77
2023/04/03 04:34:10;;;;;;;7.90;3.50;;;;;;;;;;4995407;28;20434;-77
2023/04/03 04:36:36;;;;;;;9.00;3.20;;;;;;;;;;5010709;28;20419;-80
2023/04/03 04:39:02;;;;;;;8.88;3.40;;;;;;;;;;5014841;28;20518;-80
2023/04/03 04:41:28;;;;;;;6.50;3.30;;;;;;;;;;5023374;28;20433;-80
2023/04/03 04:43:54;;;;;;;7.03;3.30;;;;;;;;;;5001184;28;20433;-80
2023/04/03 04:46:20;;;;;;;6.32;3.38;;;;;;;;;;4998438;28;20434;-76
2023/04/03 04:48:48;;;;;;;8.82;3.63;;;;;;;;;;5014714;28;20450;-76
2023/04/03 04:51:14;;;;;;;7.40;3.55;;;;;;;;;;5000825;28;20433;-76
2023/04/03 04:53:40;;;;;;;6.85;3.40;;;;;;;;;;5032816;28;20436;-80
2023/04/03 04:56:06;;;;;;;6.85;3.33;;;;;;;;;;5015953;28;20423;-80
2023/04/03 04:58:32;;;;;;;6.90;3.43;;;;;;;;;;4989524;28;20435;-80
2023/04/03 05:01:02;;;;;;;8.88;3.55;;;;;;;;;;5022350;28;20426;-80
2023/04/03 05:03:28;;;;;;;7.87;3.50;;;;;;;;;;5000422;28;20414;-80
2023/04/03 05:05:54;;;;;;;8.25;3.53;;;;;;;;;;5017312;28;20398;-80
2023/04/03 05:08:20;;;;;;;6.68;3.40;;;;;;;;;;5016107;28;20434;-82
2023/04/03 05:10:46;;;;;;;8.00;3.30;;;;;;;;;;4998770;28;20513;-82
2023/04/03 05:13:13;;;;;;;5.68;3.15;;;;;;;;;;5017152;28;20421;-82
2023/04/03 05:15:39;;;;;;;7.70;3.80;;;;;;;;;;5016953;28;20464;-82
2023/04/03 05:18:05;;;;;;;8.48;3.47;;;;;;;;;;5017150;28;20489;-81
2023/04/03 05:20:31;;;;;;;8.27;3.38;;;;;;;;;;5017297;28;20417;-80
2023/04/03 05:22:57;;;;;;;9.40;3.67;;;;;;;;;;5017203;28;20405;-76
2023/04/03 05:25:23;;;;;;;8.55;3.40;;;;;;;;;;5017226;28;20409;-78
2023/04/03 05:27:49;;;;;;;7.13;3.40;;;;;;;;;;5017229;28;20433;-78
2023/04/03 05:30:16;;;;;;;8.03;3.30;;;;;;;;;;5016843;28;20410;-78
2023/04/03 05:32:42;;;;;;;6.72;3.35;;;;;;;;;;5016908;28;20401;-78
2023/04/03 05:35:08;;;;;;;8.52;3.47;;;;;;;;;;5017141;28;20435;-80
2023/04/03 05:37:34;;;;;;;6.97;3.40;;;;;;;;;;5016744;28;20424;-80
2023/04/03 05:40:00;;;;;;;8.17;3.27;;;;;;;;;;5016628;28;20500;-80
2023/04/03 05:42:27;;;;;;;8.77;3.45;;;;;;;;;;5016819;28;20417;-80
2023/04/03 05:44:53;;;;;;;8.77;3.20;;;;;;;;;;5016870;28;20448;-80
2023/04/03 05:47:19;;;;;;;6.85;3.22;;;;;;;;;;5016716;28;20460;-80
2023/04/03 05:49:46;;;;;;;7.70;3.43;;;;;;;;;;5016871;28;20410;-77
2023/04/03 05:52:23;;;;;;;7.47;3.30;;;;;;;;;;5016694;28;20413;-78
2023/04/03 05:54:49;;;;;;;9.82;3.42;;;;;;;;;;5016806;28;20500;-78
2023/04/03 05:57:16;;;;;;;7.68;3.40;;;;;;;;;;5017000;28;20405;-78
2023/04/03 05:59:43;;;;;;;5.97;3.40;;;;;;;;;;5034208;28;20410;-78
2023/04/03 06:02:11;;;;;;;7.47;3.35;;;;;;;;;;5016973;28;20401;-78
2023/04/03 06:04:38;;;;;;;6.78;3.10;;;;;;;;;;5012956;28;20407;-82
2023/04/03 06:07:04;;;;;;;7.60;3.22;;;;;;;;;;5013695;28;20445;-82
2023/04/03 06:09:30;;;;;;;7.57;3.40;;;;;;;;;;5012815;28;20418;-81
2023/04/03 06:11:58;;;;;;;7.67;3.43;;;;;;;;;;4996831;28;20407;-81
2023/04/03 06:14:25;;;;;;;7.65;3.35;;;;;;;;;;4996555;28;20411;-82
2023/04/03 06:16:51;;;;;;;6.50;3.05;;;;;;;;;;4996907;28;20438;-82
2023/04/03 06:19:17;;;;;;;9.55;3.60;;;;;;;;;;5013257;28;20414;-81
2023/04/03 06:21:43;;;;;;;8.32;3.38;;;;;;;;;;5014491;28;20407;-81
2023/04/03 06:24:10;;;;;;;8.73;3.70;;;;;;;;;;4996509;28;20426;-82
2023/04/03 06:26:36;;;;;;;6.53;3.30;;;;;;;;;;5012974;28;20403;-77
2023/04/03 06:29:02;;;;;;;7.03;3.13;;;;;;;;;;4996487;28;20411;-76
2023/04/03 06:31:28;;;;;;;6.10;3.50;;;;;;;;;;4997040;28;20411;-77
2023/04/03 06:33:55;;;;;;;7.82;3.30;;;;;;;;;;4997029;28;20415;-77
2023/04/03 06:36:21;;;;;;;6.53;2.90;;;;;;;;;;5004044;28;20426;-77
2023/04/03 06:38:48;;;;;;;7.13;3.30;;;;;;;;;;5026563;28;20409;-77
2023/04/03 06:41:14;;;;;;;5.27;2.67;;;;;;;;;;5016731;28;20177;-77
2023/04/03 06:43:40;;;;;;;6.47;2.50;;;;;;;;;;5032792;28;20173;-80
2023/04/03 06:46:06;;;;;;;7.17;2.60;;;;;;;;;;4996950;28;20189;-80
2023/04/03 06:48:32;;;;;;;8.15;3.08;;;;;;;;;;4996221;28;20475;-80
2023/04/03 06:50:58;;;;;;;7.53;2.73;;;;;;;;;;4996811;28;20190;-80
2023/04/03 06:53:25;;;;;;;6.85;3.10;;;;;;;;;;5019204;28;20466;-80
2023/04/03 06:55:51;;;;;;;6.25;3.08;;;;;;;;;;5009044;28;20449;-80
2023/04/03 06:58:17;;;;;;;5.20;2.88;;;;;;;;;;5015896;28;20421;-80
2023/04/03 07:00:43;;;;;;;8.13;3.33;;;;;;;;;;5032580;28;20417;-80
2023/04/03 07:03:09;;;;;;;7.00;2.85;;;;;;;;;;5000559;28;20416;-80
2023/04/03 07:05:35;;;;;;;5.90;2.85;;;;;;;;;;4999641;28;20421;-80
2023/04/03 07:08:01;;;;;;;8.80;3.40;;;;;;;;;;5015932;28;20433;-80
2023/04/03 07:10:27;;;;;;;6.07;2.77;;;;;;;;;;5000977;28;20172;-80
2023/04/03 07:12:53;;;;;;;7.63;3.08;;;;;;;;;;4999455;28;20412;-80
2023/04/03 07:15:19;;;;;;;5.30;2.50;;;;;;;;;;5033585;28;20347;-81
2023/04/03 07:17:46;;;;;;;5.07;2.60;;;;;;;;;;5000362;28;20184;-81
2023/04/03 07:20:12;;;;;;;4.13;2.40;;;;;;;;;;5016873;28;20251;-82
2023/04/03 07:22:38;;;;;;;6.28;3.15;;;;;;;;;;4999742;28;20417;-81
2023/04/03 07:25:06;;;;;;;5.83;2.80;;;;;;;;;;5016397;28;20220;-82
2023/04/03 07:27:33;;;;;;;6.60;2.80;;;;;;;;;;4999472;28;20457;-82
2023/04/03 07:29:59;;;;;;;6.55;2.90;;;;;;;;;;5015968;28;20406;-81
2023/04/03 07:32:25;;;;;;;6.28;2.90;;;;;;;;;;4999344;28;20417;-76
2023/04/03 07:34:51;;;;;;;6.13;2.75;;;;;;;;;;4999221;28;20416;-77
2023/04/03 07:37:17;;;;;;;4.55;2.45;;;;;;;;;;5033790;28;20471;-77
2023/04/03 07:39:48;;;;;;;4.77;2.60;;;;;;;;;;4998650;28;20410;-77
2023/04/03 07:42:14;;;;;;;5.40;2.80;;;;;;;;;;5016104;28;20402;-82
2023/04/03 07:44:40;;;;;;;7.15;2.78;;;;;;;;;;4999017;28;20421;-81
2023/04/03 07:47:07;;;;;;;5.72;2.80;;;;;;;;;;4998977;28;20491;-82
2023/04/03 07:49:34;;;;;;;5.82;2.80;;;;;;;;;;5031696;28;20413;-77
2023/04/03 07:52:00;;;;;;;8.47;2.90;;;;;;;;;;4999184;28;20498;-77
2023/04/03 07:54:26;;;;;;;5.28;2.83;;;;;;;;;;5015571;28;20402;-77
2023/04/03 07:56:52;;;;;;;5.60;2.70;;;;;;;;;;4999045;28;20441;-77
2023/04/03 07:59:18;;;;;;;6.10;2.60;;;;;;;;;;5003997;28;20414;-77
2023/04/03 08:01:44;;;;;;;5.30;2.70;;;;;;;;;;5015022;28;20418;-77
2023/04/03 08:04:10;;;;;;;5.32;2.60;;;;;;;;;;4999486;28;20408;-77
2023/04/03 08:06:37;;;;;;;4.57;2.42;;;;;;;;;;5000321;28;20471;-78
2023/04/03 08:09:03;;;;;;;5.97;2.67;;;;;;;;;;4999045;28;20434;-78
2023/04/03 08:11:30;;;;;;;4.90;2.33;;;;;;;;;;4999923;28;20260;-79
2023/04/03 08:13:57;;;;;;;4.93;2.23;;;;;;;;;;5000355;28;20201;-79
2023/04/03 08:16:26;;;;;;;5.25;2.20;;;;;;;;;;5015126;28;20506;-79
2023/04/03 08:18:52;;;;;;;6.05;2.50;;;;;;;;;;5015185;28;20486;-79
2023/04/03 08:21:18;;;;;;;4.47;2.30;;;;;;;;;;5015293;28;20414;-79
2023/04/03 08:23:44;;;;;;;4.63;2.53;;;;;;;;;;4998975;28;20411;-80
2023/04/03 08:26:12;;;;;;;4.75;1.95;;;;;;;;;;5014953;28;20415;-80
2023/04/03 08:28:38;;;;;;;3.92;1.90;;;;;;;;;;5015110;28;20435;-80
2023/04/03 08:31:06;;;;;;;3.47;2.00;;;;;;;;;;4998932;28;20518;-80
2023/04/03 08:33:33;;;;;;;3.88;2.10;;;;;;;;;;5015221;28;20403;-81
2023/04/03 08:35:59;;;;;;;4.63;1.97;;;;;;;;;;5014906;28;20419;-80
2023/04/03 08:38:25;;;;;;;3.25;1.90;;;;;;;;;;4998595;28;20458;-80
2023/04/03 08:41:11;;;;;;;3.07;1.70;;;;;;;;;;5015397;28;20273;-79
2023/04/03 08:43:56;;;;;;;3.57;1.60;;;;;;;;;;5016519;28;20174;-79
2023/04/03 08:46:25;;;;;;;3.20;1.30;;;;;;;;;;5015306;28;20268;-79
2023/04/03 08:48:52;;;;;;;3.20;1.30;;;;;;;;;;5016200;28;20201;-79
2023/04/03 08:51:21;;;;;;;2.37;1.30;;;;;;;;;;5016326;28;20165;-80
2023/04/03 08:53:56;;;;;;;3.53;1.53;;;;;;;;;;5015012;28;20216;-79
2023/04/03 08:56:23;;;;;;;2.40;1.50;;;;;;;;;;5015302;28;20205;-78
2023/04/03 08:58:52;;;;;;;2.87;1.30;;;;;;;;;;4999184;28;20189;-78
2023/04/03 09:01:35;;;;;;;3.23;1.37;;;;;;;;;;5016382;28;20180;-78
2023/04/03 09:04:02;;;;;;;1.40;1.10;;;;;;;;;;5020291;28;20200;-78
2023/04/03 09:06:32;;;;;;;2.10;1.37;;;;;;;;;;5016101;28;20216;-78
2023/04/03 09:09:16;;;;;;;2.57;1.30;;;;;;;;;;5016193;28;20212;-79
2023/04/03 09:11:47;;;;;;;1.87;1.10;;;;;;;;;;4998022;28;20174;-82
2023/04/03 09:14:23;;;;;;;2.27;1.20;;;;;;;;;;4998810;28;20173;-82
2023/04/03 09:17:00;;;;;;;1.60;1.10;;;;;;;;;;5016327;28;20224;-79
2023/04/03 09:19:32;;;;;;;0.93;0.83;;;;;;;;;;4998804;28;20177;-79
2023/04/03 09:22:18;;;;;;;2.13;1.20;;;;;;;;;;5016043;28;20244;-79
2023/04/03 09:24:51;;;;;;;2.30;1.20;;;;;;;;;;5014549;28;20244;-80
2023/04/03 09:27:17;;;;;;;1.37;1.00;;;;;;;;;;4998453;28;20209;-80
2023/04/03 09:29:47;;;;;;;1.77;0.80;;;;;;;;;;4999028;28;20242;-76
2023/04/03 09:32:33;;;;;;;1.67;0.90;;;;;;;;;;4998551;28;20182;-75
2023/04/03 09:35:03;;;;;;;1.37;0.90;;;;;;;;;;5015964;28;20201;-76
2023/04/03 09:37:36;;;;;;;1.07;0.90;;;;;;;;;;5015774;28;20180;-75
2023/04/03 09:40:04;;;;;;;1.07;0.90;;;;;;;;;;4997919;28;20182;-77
2023/04/03 09:42:31;;;;;;;1.87;1.03;;;;;;;;;;4997907;28;20247;-76
2023/04/03 09:44:58;;;;;;;2.40;1.30;;;;;;;;;;5015440;28;20173;-76
2023/04/03 09:47:26;;;;;;;1.53;1.00;;;;;;;;;;4997739;28;20209;-81
2023/04/03 09:50:09;;;;;;;1.87;1.10;;;;;;;;;;4997640;28;20173;-81
2023/04/03 09:52:36;;;;;;;2.23;1.10;;;;;;;;;;4997893;28;20213;-82
2023/04/03 09:55:09;;;;;;;2.30;1.00;;;;;;;;;;4997941;28;20208;-82
2023/04/03 09:57:35;;;;;;;1.70;1.00;;;;;;;;;;5014977;28;20181;-82
2023/04/03 10:00:04;;;;;;;2.17;1.10;;;;;;;;;;5014978;28;20181;-77
2023/04/03 10:02:36;;;;;;;1.30;1.10;;;;;;;;;;4997770;28;20186;-78
2023/04/03 10:05:03;;;;;;;1.83;1.00;;;;;;;;;;4997392;28;20185;-79
2023/04/03 10:07:37;;;;;;;3.53;1.03;;;;;;;;;;5006884;28;20256;-79
2023/04/03 10:10:15;;;;;;;1.83;1.00;;;;;;;;;;5013697;28;20173;-78
2023/04/03 10:12:41;;;;;;;2.47;1.03;;;;;;;;;;5015007;28;20179;-79
2023/04/03 10:15:14;;;;;;;2.20;1.10;;;;;;;;;;4997606;28;20193;-79
2023/04/03 10:17:50;;;;;;;2.00;1.20;;;;;;;;;;4997236;28;20228;-79
2023/04/03 10:20:16;;;;;;;2.10;1.20;;;;;;;;;;5013599;28;20268;-79
2023/04/03 10:22:45;;;;;;;3.20;1.30;;;;;;;;;;5013388;28;20276;-79
2023/04/03 10:25:22;;;;;;;1.20;1.10;;;;;;;;;;5012641;28;20216;-79
2023/04/03 10:27:59;;;;;;;1.47;1.10;;;;;;;;;;5013444;28;20236;-79
2023/04/03 10:30:28;;;;;;;1.70;1.30;;;;;;;;;;5013316;28;20181;-79
2023/04/03 10:33:11;;;;;;;4.50;1.50;;;;;;;;;;5013220;28;20177;-79
2023/04/03 10:35:37;;;;;;;1.73;1.10;;;;;;;;;;5014459;28;20176;-77
2023/04/03 10:38:29;;;;;;;2.03;1.17;;;;;;;;;;5014360;28;20181;-77
2023/04/03 10:41:10;;;;;;;2.22;1.30;;;;;;;;;;5012518;28;20538;-77
2023/04/03 10:43:55;;;;;;;2.80;1.83;;;;;;;;;;5013110;28;20183;-77
2023/04/03 10:46:29;;;;;;;2.10;1.47;;;;;;;;;;5027553;28;20189;-77
2023/04/03 10:48:55;;;;;;;2.40;1.20;;;;;;;;;;5016559;28;20204;-77
2023/04/03 10:51:37;;;;;;;2.13;1.23;;;;;;;;;;5016449;28;20179;-82
2023/04/03 10:54:10;;;;;;;2.43;1.30;;;;;;;;;;5016670;28;20176;-79
2023/04/03 10:56:43;;;;;;;2.17;1.30;;;;;;;;;;5017156;28;20172;-79
2023/04/03 10:59:12;;;;;;;1.97;1.23;;;;;;;;;;5016688;28;20188;-79
2023/04/03 11:01:40;;;;;;;1.90;1.10;;;;;;;;;;5034258;28;20225;-79
2023/04/03 11:04:07;;;;;;;3.37;1.40;;;;;;;;;;5016658;28;20180;-79
2023/04/03 11:06:36;;;;;;;1.17;1.00;;;;;;;;;;5034168;28;20195;-79
2023/04/03 11:09:13;;;;;;;1.70;1.30;;;;;;;;;;5017353;28;20215;-79
2023/04/03 11:11:40;;;;;;;2.53;1.20;;;;;;;;;;5034276;28;20179;-79
2023/04/03 11:14:20;;;;;;;2.77;1.50;;;;;;;;;;5017117;28;20185;-79
2023/04/03 11:16:47;;;;;;;3.33;1.50;;;;;;;;;;5016377;28;20243;-79
2023/04/03 11:19:21;;;;;;;1.73;1.20;;;;;;;;;;5033694;28;20181;-79
2023/04/03 11:21:52;;;;;;;2.10;1.20;;;;;;;;;;4996689;28;20181;-79
2023/04/03 11:24:25;;;;;;;2.10;1.13;;;;;;;;;;5014325;28;20173;-79
2023/04/03 11:26:53;;;;;;;2.90;1.23;;;;;;;;;;5013776;28;20174;-77
2023/04/03 11:29:21;;;;;;;3.63;1.30;;;;;;;;;;4996714;28;20213;-76
2023/04/03 11:32:17;;;;;;;1.40;0.97;;;;;;;;;;4996899;28;20189;-77
2023/04/03 11:34:46;;;;;;;2.27;1.10;;;;;;;;;;4996814;28;20219;-77
2023/04/03 11:37:32;;;;;;;2.00;1.20;;;;;;;;;;5000549;28;20189;-77
2023/04/03 11:40:02;;;;;;;2.40;1.27;;;;;;;;;;4990061;28;20220;-77
2023/04/03 11:42:39;;;;;;;1.90;1.20;;;;;;;;;;5000785;28;20248;-83
2023/04/03 11:45:17;;;;;;;2.23;1.27;;;;;;;;;;5000756;28;20223;-83
2023/04/03 11:47:45;;;;;;;2.10;1.20;;;;;;;;;;5000242;28;20204;-83
2023/04/03 11:50:30;;;;;;;2.13;1.10;;;;;;;;;;5000530;28;20209;-83
2023/04/03 11:52:57;;;;;;;2.63;1.20;;;;;;;;;;5000022;28;20272;-83
2023/04/03 11:55:32;;;;;;;1.73;1.20;;;;;;;;;;5000389;28;20177;-82
2023/04/03 11:57:58;;;;;;;2.23;1.20;;;;;;;;;;5000076;28;20181;-83
2023/04/03 12:00:44;;;;;;;2.43;1.27;;;;;;;;;;5017507;28;20257;-81
2023/04/03 12:05:52;;;;;;;2.83;1.10;;;;;;;;;;5017294;28;20177;-82
2023/04/03 12:08:18;;;;;;;2.20;1.20;;;;;;;;;;5000186;28;20275;-82
2023/04/03 12:11:04;;;;;;;2.57;1.10;;;;;;;;;;5017164;28;20174;-80
2023/04/03 12:13:31;;;;;;;2.17;1.30;;;;;;;;;;5003146;28;20177;-81
2023/04/03 12:15:59;;;;;;;5.17;1.23;;;;;;;;;;5015877;28;20232;-79
2023/04/03 12:18:42;;;;;;;3.13;1.43;;;;;;;;;;5000204;28;20185;-79
2023/04/03 12:21:09;;;;;;;1.47;1.13;;;;;;;;;;5016550;28;20173;-79
2023/04/03 12:23:38;;;;;;;2.50;1.47;;;;;;;;;;5015794;28;20208;-79
2023/04/03 12:26:04;;;;;;;1.73;1.40;;;;;;;;;;5016424;28;20197;-79
2023/04/03 12:28:36;;;;;;;1.93;1.50;;;;;;;;;;5015921;28;20209;-78
2023/04/03 12:31:02;;;;;;;2.33;1.37;;;;;;;;;;5016837;28;20227;-79
2023/04/03 12:33:37;;;;;;;3.50;1.57;;;;;;;;;;4999660;28;20182;-81
2023/04/03 12:36:03;;;;;;;2.00;1.20;;;;;;;;;;5016110;28;20177;-81
2023/04/03 12:38:35;;;;;;;2.43;1.50;;;;;;;;;;5016086;28;20319;-81
2023/04/03 12:41:16;;;;;;;2.33;1.30;;;;;;;;;;5015862;28;20181;-81
2023/04/03 12:43:46;;;;;;;2.63;1.40;;;;;;;;;;5016795;28;20184;-80
2023/04/03 12:46:22;;;;;;;2.00;1.20;;;;;;;;;;5015359;28;20185;-81
2023/04/03 12:48:48;;;;;;;2.63;1.23;;;;;;;;;;5016343;28;20211;-77
2023/04/03 12:51:16;;;;;;;1.57;1.30;;;;;;;;;;5015622;28;20178;-77
2023/04/03 12:53:43;;;;;;;3.27;1.40;;;;;;;;;;5033934;28;20268;-77
2023/04/03 12:56:23;;;;;;;2.87;1.33;;;;;;;;;;5018636;28;20181;-77
2023/04/03 12:58:50;;;;;;;2.90;1.30;;;;;;;;;;5018613;28;20191;-77
2023/04/03 13:01:21;;;;;;;2.90;1.43;;;;;;;;;;5002673;28;20181;-77
2023/04/03 13:04:05;;;;;;;2.60;1.20;;;;;;;;;;5018424;28;20331;-77
2023/04/03 13:06:35;;;;;;;4.20;1.50;;;;;;;;;;5002719;28;20275;-77
2023/04/03 13:09:01;;;;;;;5.00;1.50;;;;;;;;;;5036651;28;20323;-76
2023/04/03 13:11:28;;;;;;;3.00;1.40;;;;;;;;;;5018272;28;20238;-77
2023/04/03 13:14:04;;;;;;;2.13;1.30;;;;;;;;;;5018490;28;20177;-76
2023/04/03 13:16:31;;;;;;;2.67;1.40;;;;;;;;;;5018546;28;20710;-77
2023/04/03 13:18:57;;;;;;;3.13;1.40;;;;;;;;;;5018069;28;20181;-77
2023/04/03 13:21:28;;;;;;;2.53;1.50;;;;;;;;;;5018063;28;20188;-77
2023/04/03 13:23:56;;;;;;;3.07;1.70;;;;;;;;;;5035945;28;20183;-81
2023/04/03 13:26:23;;;;;;;2.97;1.63;;;;;;;;;;5018124;28;20202;-81
2023/04/03 13:28:50;;;;;;;4.07;1.60;;;;;;;;;;5035274;28;20200;-81
2023/04/03 13:31:23;;;;;;;2.07;1.30;;;;;;;;;;5001541;28;20185;-81
2023/04/03 13:34:07;;;;;;;2.33;1.27;;;;;;;;;;5017997;28;20177;-81
2023/04/03 13:36:35;;;;;;;2.20;1.40;;;;;;;;;;5018282;28;20299;-83
2023/04/03 13:39:04;;;;;;;4.53;1.60;;;;;;;;;;5017780;28;20203;-81
2023/04/03 13:41:35;;;;;;;3.00;1.63;;;;;;;;;;5017224;28;20176;-81
2023/04/03 13:44:19;;;;;;;2.53;1.40;;;;;;;;;;5024483;28;20241;-81
2023/04/03 13:46:45;;;;;;;3.33;1.60;;;;;;;;;;5027417;28;20188;-81
2023/04/03 13:49:20;;;;;;;4.70;2.10;;;;;;;;;;5000262;28;20220;-82
2023/04/03 13:51:47;;;;;;;2.40;1.43;;;;;;;;;;5013932;28;20176;-81
2023/04/03 13:54:24;;;;;;;2.60;1.50;;;;;;;;;;4997204;28;20188;-81
2023/04/03 13:56:58;;;;;;;3.17;1.53;;;;;;;;;;5013868;28;20176;-76
2023/04/03 13:59:34;;;;;;;5.50;1.70;;;;;;;;;;5013637;28;20184;-77
2023/04/03 14:02:00;;;;;;;2.43;1.60;;;;;;;;;;5019220;28;20207;-77
2023/04/03 14:04:28;;;;;;;2.63;1.60;;;;;;;;;;5017004;28;20246;-77
2023/04/03 14:06:55;;;;;;;3.13;1.60;;;;;;;;;;5016607;28;20248;-77
2023/04/03 14:09:22;;;;;;;4.00;1.70;;;;;;;;;;5016774;28;20270;-76
2023/04/03 14:11:50;;;;;;;3.37;1.87;;;;;;;;;;5033121;28;20199;-77
2023/04/03 14:14:19;;;;;;;4.57;1.67;;;;;;;;;;5015265;28;20208;-76
2023/04/03 14:16:47;;;;;;;2.40;1.60;;;;;;;;;;5016636;28;20232;-76
2023/04/03 14:19:20;;;;;;;2.20;1.60;;;;;;;;;;5016891;28;20184;-81
2023/04/03 14:21:46;;;;;;;2.73;1.60;;;;;;;;;;5016962;28;20173;-81
2023/04/03 14:24:12;;;;;;;4.90;1.60;;;;;;;;;;5016667;28;20179;-81
2023/04/03 14:26:38;;;;;;;2.73;1.60;;;;;;;;;;5034270;28;20173;-81
2023/04/03 14:29:05;;;;;;;3.60;1.77;;;;;;;;;;5000430;28;20283;-81
2023/04/03 14:31:31;;;;;;;3.00;1.80;;;;;;;;;;5016748;28;20181;-81
2023/04/03 14:33:57;;;;;;;2.60;1.60;;;;;;;;;;5012467;28;20191;-81
2023/04/03 14:36:25;;;;;;;3.70;1.70;;;;;;;;;;5000427;28;20191;-81
2023/04/03 14:38:52;;;;;;;6.27;2.10;;;;;;;;;;5016574;28;20214;-82
2023/04/03 14:41:20;;;;;;;3.20;1.80;;;;;;;;;;5016787;28;20195;-82
2023/04/03 14:43:47;;;;;;;2.53;1.90;;;;;;;;;;5049469;28;20204;-82
2023/04/03 14:46:14;;;;;;;4.60;1.73;;;;;;;;;;5016845;28;20207;-83
2023/04/03 14:48:41;;;;;;;2.40;1.50;;;;;;;;;;5034349;28;20207;-83
2023/04/03 14:51:07;;;;;;;3.37;1.87;;;;;;;;;;5033536;28;20247;-83
2023/04/03 14:53:33;;;;;;;3.00;1.70;;;;;;;;;;5000433;28;20176;-83